sensor_id;sensor_type;location;lat;lon;timestamp;noise_LAeq;noise_LA_min;noise_LA_max;noise_LA01;noise_LA95
37161;Laerm;67371;52.624;13.544;2023-02-13T00:02:10;33.00;30.26;43.94;;
37161;Laerm;67371;52.624;13.544;2023-02-13T00:04:35;34.63;30.67;44.32;;
37161;Laerm;67371;52.624;13.544;2023-02-13T00:07:00;33.43;30.29;49.90;;
37161;Laerm;67371;52.624;13.544;2023-02-13T00:09:25;32.99;30.31;43.27;;
37161;Laerm;67371;52.624;13.544;2023-02-13T00:11:51;50.94;31.80;70.28;;
37161;Laerm;67371;52.624;13.544;2023-02-13T00:14:16;58.24;32.36;77.31;;
37161;Laerm;67371;52.624;13.544;2023-02-13T00:16:41;63.19;33.37;79.53;;
37161;Laerm;67371;52.624;13.544;2023-02-13T00:19:06;37.07;32.03;45.41;;
37161;Laerm;67371;52.624;13.544;2023-02-13T00:21:32;56.94;32.92;74.82;;
37161;Laerm;67371;52.624;13.544;2023-02-13T00:23:57;57.94;31.74;75.66;;
37161;Laerm;67371;52.624;13.544;2023-02-13T00:26:22;60.59;33.34;77.58;;
37161;Laerm;67371;52.624;13.544;2023-02-13T00:28:47;56.65;32.36;76.90;;
37161;Laerm;67371;52.624;13.544;2023-02-13T00:31:14;36.13;31.82;45.84;;
37161;Laerm;67371;52.624;13.544;2023-02-13T00:33:39;61.09;33.09;78.33;;
37161;Laerm;67371;52.624;13.544;2023-02-13T00:36:12;36.47;30.67;46.56;;
37161;Laerm;67371;52.624;13.544;2023-02-13T00:38:37;59.41;31.65;77.93;;
37161;Laerm;67371;52.624;13.544;2023-02-13T00:41:03;38.79;31.23;51.21;;
37161;Laerm;67371;52.624;13.544;2023-02-13T00:43:28;54.39;31.32;73.00;;
37161;Laerm;67371;52.624;13.544;2023-02-13T00:45:53;61.88;33.62;75.94;;
37161;Laerm;67371;52.624;13.544;2023-02-13T00:48:19;59.41;35.90;77.48;;
37161;Laerm;67371;52.624;13.544;2023-02-13T00:50:45;39.60;34.22;50.40;;
37161;Laerm;67371;52.624;13.544;2023-02-13T00:53:10;36.01;30.73;43.07;;
37161;Laerm;67371;52.624;13.544;2023-02-13T00:55:35;54.69;30.47;70.61;;
37161;Laerm;67371;52.624;13.544;2023-02-13T00:58:00;57.77;33.32;72.42;;
37161;Laerm;67371;52.624;13.544;2023-02-13T01:00:26;55.35;32.62;72.41;;
37161;Laerm;67371;52.624;13.544;2023-02-13T01:02:51;65.52;32.70;85.37;;
37161;Laerm;67371;52.624;13.544;2023-02-13T01:05:16;48.14;31.52;64.56;;
37161;Laerm;67371;52.624;13.544;2023-02-13T01:07:41;58.86;33.88;75.05;;
37161;Laerm;67371;52.624;13.544;2023-02-13T01:10:07;39.00;33.31;48.05;;
37161;Laerm;67371;52.624;13.544;2023-02-13T01:12:32;35.85;31.51;41.14;;
37161;Laerm;67371;52.624;13.544;2023-02-13T01:14:57;52.37;33.59;67.98;;
37161;Laerm;67371;52.624;13.544;2023-02-13T01:17:22;38.34;32.76;48.62;;
37161;Laerm;67371;52.624;13.544;2023-02-13T01:19:48;38.19;32.67;46.16;;
37161;Laerm;67371;52.624;13.544;2023-02-13T01:22:13;48.32;30.08;69.41;;
37161;Laerm;67371;52.624;13.544;2023-02-13T01:24:38;53.36;33.27;71.57;;
37161;Laerm;67371;52.624;13.544;2023-02-13T01:27:03;36.02;31.81;47.00;;
37161;Laerm;67371;52.624;13.544;2023-02-13T01:29:28;63.33;32.61;78.42;;
37161;Laerm;67371;52.624;13.544;2023-02-13T01:31:54;56.69;32.66;71.79;;
37161;Laerm;67371;52.624;13.544;2023-02-13T01:34:19;35.37;31.77;47.83;;
37161;Laerm;67371;52.624;13.544;2023-02-13T01:36:44;57.60;32.84;76.83;;
37161;Laerm;67371;52.624;13.544;2023-02-13T01:39:10;61.03;33.71;76.53;;
37161;Laerm;67371;52.624;13.544;2023-02-13T01:41:35;37.09;32.18;44.41;;
37161;Laerm;67371;52.624;13.544;2023-02-13T01:44:01;55.89;32.88;75.39;;
37161;Laerm;67371;52.624;13.544;2023-02-13T01:48:52;35.28;30.91;44.59;;
37161;Laerm;67371;52.624;13.544;2023-02-13T01:51:19;63.55;32.81;82.09;;
37161;Laerm;67371;52.624;13.544;2023-02-13T01:53:51;35.57;31.59;45.59;;
37161;Laerm;67371;52.624;13.544;2023-02-13T01:58:46;54.20;32.90;71.12;;
37161;Laerm;67371;52.624;13.544;2023-02-13T02:01:12;42.24;30.84;62.63;;
37161;Laerm;67371;52.624;13.544;2023-02-13T02:06:02;38.12;32.48;48.15;;
37161;Laerm;67371;52.624;13.544;2023-02-13T02:08:28;60.64;34.12;75.94;;
37161;Laerm;67371;52.624;13.544;2023-02-13T02:10:55;57.22;33.95;74.87;;
37161;Laerm;67371;52.624;13.544;2023-02-13T02:13:22;61.64;34.67;79.99;;
37161;Laerm;67371;52.624;13.544;2023-02-13T02:15:47;59.16;34.41;75.21;;
37161;Laerm;67371;52.624;13.544;2023-02-13T02:18:20;63.49;34.10;79.40;;
37161;Laerm;67371;52.624;13.544;2023-02-13T02:21:36;60.74;33.19;76.93;;
37161;Laerm;67371;52.624;13.544;2023-02-13T02:26:39;57.14;33.50;71.67;;
37161;Laerm;67371;52.624;13.544;2023-02-13T02:45:12;52.36;33.76;72.25;;
37161;Laerm;67371;52.624;13.544;2023-02-13T02:47:48;60.06;32.61;76.57;;
37161;Laerm;67371;52.624;13.544;2023-02-13T02:51:18;36.69;33.05;46.93;;
37161;Laerm;67371;52.624;13.544;2023-02-13T02:55:55;64.46;35.60;77.47;;
37161;Laerm;67371;52.624;13.544;2023-02-13T02:58:27;51.92;33.03;68.66;;
37161;Laerm;67371;52.624;13.544;2023-02-13T03:01:15;55.34;32.79;70.72;;
37161;Laerm;67371;52.624;13.544;2023-02-13T03:04:00;36.07;33.05;40.74;;
37161;Laerm;67371;52.624;13.544;2023-02-13T03:06:47;63.64;35.75;77.34;;
37161;Laerm;67371;52.624;13.544;2023-02-13T03:09:14;54.81;33.78;74.46;;
37161;Laerm;67371;52.624;13.544;2023-02-13T03:12:00;61.66;36.09;74.97;;
37161;Laerm;67371;52.624;13.544;2023-02-13T03:14:44;57.72;36.19;75.16;;
37161;Laerm;67371;52.624;13.544;2023-02-13T03:17:10;63.24;38.51;76.86;;
37161;Laerm;67371;52.624;13.544;2023-02-13T03:20:04;63.85;37.77;75.76;;
37161;Laerm;67371;52.624;13.544;2023-02-13T03:25:26;65.60;37.30;81.33;;
37161;Laerm;67371;52.624;13.544;2023-02-13T03:28:05;62.08;36.99;75.07;;
37161;Laerm;67371;52.624;13.544;2023-02-13T03:33:42;66.40;40.99;78.21;;
37161;Laerm;67371;52.624;13.544;2023-02-13T03:36:16;63.64;36.37;75.99;;
37161;Laerm;67371;52.624;13.544;2023-02-13T03:41:28;64.54;38.56;75.20;;
37161;Laerm;67371;52.624;13.544;2023-02-13T03:44:07;63.16;38.80;76.29;;
37161;Laerm;67371;52.624;13.544;2023-02-13T03:46:35;65.66;38.48;80.05;;
37161;Laerm;67371;52.624;13.544;2023-02-13T03:49:03;61.78;39.87;79.10;;
37161;Laerm;67371;52.624;13.544;2023-02-13T03:54:16;64.55;40.34;78.69;;
37161;Laerm;67371;52.624;13.544;2023-02-13T03:56:42;65.31;40.58;79.39;;
37161;Laerm;67371;52.624;13.544;2023-02-13T03:59:31;65.76;39.28;81.48;;
37161;Laerm;67371;52.624;13.544;2023-02-13T04:04:40;64.41;40.90;74.75;;
37161;Laerm;67371;52.624;13.544;2023-02-13T04:07:09;65.41;43.36;73.60;;
37161;Laerm;67371;52.624;13.544;2023-02-13T04:09:36;67.70;45.34;79.00;;
37161;Laerm;67371;52.624;13.544;2023-02-13T04:14:54;67.52;47.35;77.54;;
37161;Laerm;67371;52.624;13.544;2023-02-13T04:17:17;66.04;43.45;75.90;;
37161;Laerm;67371;52.624;13.544;2023-02-13T04:19:44;66.13;46.12;77.11;;
37161;Laerm;67371;52.624;13.544;2023-02-13T04:22:10;68.71;45.80;79.02;;
37161;Laerm;67371;52.624;13.544;2023-02-13T04:24:35;65.87;44.83;76.51;;
37161;Laerm;67371;52.624;13.544;2023-02-13T04:27:01;67.88;45.31;77.34;;
37161;Laerm;67371;52.624;13.544;2023-02-13T04:29:26;67.52;45.35;78.32;;
37161;Laerm;67371;52.624;13.544;2023-02-13T04:31:51;65.15;44.74;75.53;;
37161;Laerm;67371;52.624;13.544;2023-02-13T04:34:17;67.08;43.80;77.42;;
37161;Laerm;67371;52.624;13.544;2023-02-13T04:36:42;66.98;47.38;78.43;;
37161;Laerm;67371;52.624;13.544;2023-02-13T04:39:07;66.58;45.07;76.93;;
37161;Laerm;67371;52.624;13.544;2023-02-13T04:41:32;68.70;44.30;77.58;;
37161;Laerm;67371;52.624;13.544;2023-02-13T04:43:57;67.90;45.15;76.94;;
37161;Laerm;67371;52.624;13.544;2023-02-13T04:46:25;68.90;46.46;79.29;;
37161;Laerm;67371;52.624;13.544;2023-02-13T04:48:50;68.13;44.92;81.02;;
37161;Laerm;67371;52.624;13.544;2023-02-13T04:51:16;67.35;44.51;78.07;;
37161;Laerm;67371;52.624;13.544;2023-02-13T04:53:41;67.45;47.08;75.93;;
37161;Laerm;67371;52.624;13.544;2023-02-13T04:56:06;67.25;48.75;79.17;;
37161;Laerm;67371;52.624;13.544;2023-02-13T04:58:31;68.08;46.78;77.96;;
37161;Laerm;67371;52.624;13.544;2023-02-13T05:00:57;69.18;47.25;82.73;;
37161;Laerm;67371;52.624;13.544;2023-02-13T05:03:22;68.27;44.23;78.89;;
37161;Laerm;67371;52.624;13.544;2023-02-13T05:05:47;70.04;45.09;81.21;;
37161;Laerm;67371;52.624;13.544;2023-02-13T05:08:13;68.77;43.75;80.78;;
37161;Laerm;67371;52.624;13.544;2023-02-13T05:10:38;68.01;44.63;80.03;;
37161;Laerm;67371;52.624;13.544;2023-02-13T05:13:03;69.12;45.30;78.35;;
37161;Laerm;67371;52.624;13.544;2023-02-13T05:15:29;69.81;45.65;79.35;;
37161;Laerm;67371;52.624;13.544;2023-02-13T05:17:54;69.81;47.51;78.18;;
37161;Laerm;67371;52.624;13.544;2023-02-13T05:20:19;70.85;48.09;79.74;;
37161;Laerm;67371;52.624;13.544;2023-02-13T05:22:45;67.81;46.74;76.30;;
37161;Laerm;67371;52.624;13.544;2023-02-13T05:25:29;69.51;45.58;80.51;;
37161;Laerm;67371;52.624;13.544;2023-02-13T05:27:55;70.81;47.14;80.31;;
37161;Laerm;67371;52.624;13.544;2023-02-13T05:30:20;68.65;46.52;78.40;;
37161;Laerm;67371;52.624;13.544;2023-02-13T05:32:45;68.90;49.17;76.38;;
37161;Laerm;67371;52.624;13.544;2023-02-13T05:35:10;69.36;47.38;78.06;;
37161;Laerm;67371;52.624;13.544;2023-02-13T05:37:36;71.33;54.40;81.72;;
37161;Laerm;67371;52.624;13.544;2023-02-13T05:40:01;70.57;52.63;78.45;;
37161;Laerm;67371;52.624;13.544;2023-02-13T05:42:26;68.82;50.62;76.92;;
37161;Laerm;67371;52.624;13.544;2023-02-13T05:44:51;69.22;49.70;76.57;;
37161;Laerm;67371;52.624;13.544;2023-02-13T05:47:17;67.67;50.11;77.64;;
37161;Laerm;67371;52.624;13.544;2023-02-13T05:49:42;70.42;46.64;81.50;;
37161;Laerm;67371;52.624;13.544;2023-02-13T05:52:07;69.19;46.05;77.48;;
37161;Laerm;67371;52.624;13.544;2023-02-13T05:54:32;69.47;49.28;82.08;;
37161;Laerm;67371;52.624;13.544;2023-02-13T05:56:57;69.33;50.03;79.31;;
37161;Laerm;67371;52.624;13.544;2023-02-13T05:59:23;69.49;52.92;77.34;;
37161;Laerm;67371;52.624;13.544;2023-02-13T06:01:48;70.17;50.44;77.92;;
37161;Laerm;67371;52.624;13.544;2023-02-13T06:04:13;69.32;46.87;84.91;;
37161;Laerm;67371;52.624;13.544;2023-02-13T06:06:38;69.61;49.84;80.18;;
37161;Laerm;67371;52.624;13.544;2023-02-13T06:09:03;70.83;49.20;79.98;;
37161;Laerm;67371;52.624;13.544;2023-02-13T06:11:29;69.86;49.93;78.69;;
37161;Laerm;67371;52.624;13.544;2023-02-13T06:13:54;68.62;46.57;77.19;;
37161;Laerm;67371;52.624;13.544;2023-02-13T06:16:19;69.62;47.67;78.63;;
37161;Laerm;67371;52.624;13.544;2023-02-13T06:18:44;69.92;46.99;80.78;;
37161;Laerm;67371;52.624;13.544;2023-02-13T06:21:10;69.61;49.81;78.97;;
37161;Laerm;67371;52.624;13.544;2023-02-13T06:23:35;69.41;48.21;80.44;;
37161;Laerm;67371;52.624;13.544;2023-02-13T06:26:04;69.88;49.28;78.22;;
37161;Laerm;67371;52.624;13.544;2023-02-13T06:28:29;69.85;49.84;77.54;;
37161;Laerm;67371;52.624;13.544;2023-02-13T06:30:55;68.82;50.56;76.31;;
37161;Laerm;67371;52.624;13.544;2023-02-13T06:33:20;69.89;49.09;81.59;;
37161;Laerm;67371;52.624;13.544;2023-02-13T06:35:45;70.93;54.62;81.96;;
37161;Laerm;67371;52.624;13.544;2023-02-13T06:38:10;69.87;51.10;78.05;;
37161;Laerm;67371;52.624;13.544;2023-02-13T06:40:36;70.10;53.73;80.61;;
37161;Laerm;67371;52.624;13.544;2023-02-13T06:43:01;68.75;49.11;78.26;;
37161;Laerm;67371;52.624;13.544;2023-02-13T06:45:26;68.19;50.16;78.36;;
37161;Laerm;67371;52.624;13.544;2023-02-13T06:47:51;70.20;48.97;77.53;;
37161;Laerm;67371;52.624;13.544;2023-02-13T06:50:17;68.97;55.32;77.95;;
37161;Laerm;67371;52.624;13.544;2023-02-13T06:52:45;67.79;54.72;75.92;;
37161;Laerm;67371;52.624;13.544;2023-02-13T06:55:11;68.37;52.86;76.87;;
37161;Laerm;67371;52.624;13.544;2023-02-13T06:57:36;69.24;52.17;78.41;;
37161;Laerm;67371;52.624;13.544;2023-02-13T07:00:02;69.88;51.24;77.55;;
37161;Laerm;67371;52.624;13.544;2023-02-13T07:02:30;67.83;48.86;78.51;;
37161;Laerm;67371;52.624;13.544;2023-02-13T07:04:55;69.24;49.28;79.25;;
37161;Laerm;67371;52.624;13.544;2023-02-13T07:07:20;68.97;48.36;76.94;;
37161;Laerm;67371;52.624;13.544;2023-02-13T07:09:45;68.74;51.81;76.54;;
37161;Laerm;67371;52.624;13.544;2023-02-13T07:12:11;68.63;48.27;78.52;;
37161;Laerm;67371;52.624;13.544;2023-02-13T07:14:36;67.83;48.38;78.35;;
37161;Laerm;67371;52.624;13.544;2023-02-13T07:17:01;68.17;50.55;75.25;;
37161;Laerm;67371;52.624;13.544;2023-02-13T07:19:26;69.15;51.02;79.32;;
37161;Laerm;67371;52.624;13.544;2023-02-13T07:21:51;70.19;51.70;81.13;;
37161;Laerm;67371;52.624;13.544;2023-02-13T07:24:17;69.36;52.79;77.39;;
37161;Laerm;67371;52.624;13.544;2023-02-13T07:26:43;67.91;46.68;81.20;;
37161;Laerm;67371;52.624;13.544;2023-02-13T07:29:08;67.00;48.43;77.68;;
37161;Laerm;67371;52.624;13.544;2023-02-13T07:31:33;69.24;48.34;79.84;;
37161;Laerm;67371;52.624;13.544;2023-02-13T07:33:59;69.49;49.86;80.09;;
37161;Laerm;67371;52.624;13.544;2023-02-13T07:36:24;69.01;49.43;79.39;;
37161;Laerm;67371;52.624;13.544;2023-02-13T07:38:50;68.38;50.60;77.52;;
37161;Laerm;67371;52.624;13.544;2023-02-13T07:41:15;68.16;47.21;78.50;;
37161;Laerm;67371;52.624;13.544;2023-02-13T07:43:40;69.55;48.43;77.91;;
37161;Laerm;67371;52.624;13.544;2023-02-13T07:46:05;68.63;46.46;79.01;;
37161;Laerm;67371;52.624;13.544;2023-02-13T07:48:30;68.12;47.52;86.84;;
37161;Laerm;67371;52.624;13.544;2023-02-13T07:50:59;68.21;46.11;77.25;;
37161;Laerm;67371;52.624;13.544;2023-02-13T07:53:25;69.16;50.51;79.25;;
37161;Laerm;67371;52.624;13.544;2023-02-13T07:55:50;69.75;50.44;78.92;;
37161;Laerm;67371;52.624;13.544;2023-02-13T07:58:15;67.03;46.34;77.18;;
37161;Laerm;67371;52.624;13.544;2023-02-13T08:00:41;67.72;48.53;76.65;;
37161;Laerm;67371;52.624;13.544;2023-02-13T08:03:06;68.17;48.97;78.71;;
37161;Laerm;67371;52.624;13.544;2023-02-13T08:05:31;69.11;52.45;78.35;;
37161;Laerm;67371;52.624;13.544;2023-02-13T08:07:57;68.49;49.90;75.46;;
37161;Laerm;67371;52.624;13.544;2023-02-13T08:10:22;65.53;47.19;83.99;;
37161;Laerm;67371;52.624;13.544;2023-02-13T08:13:06;68.48;48.56;79.04;;
37161;Laerm;67371;52.624;13.544;2023-02-13T08:15:32;69.44;49.49;80.05;;
37161;Laerm;67371;52.624;13.544;2023-02-13T08:17:58;67.83;48.95;77.29;;
37161;Laerm;67371;52.624;13.544;2023-02-13T08:20:23;67.04;49.47;79.50;;
37161;Laerm;67371;52.624;13.544;2023-02-13T08:22:48;70.82;50.65;80.02;;
37161;Laerm;67371;52.624;13.544;2023-02-13T08:25:13;68.54;48.00;77.64;;
37161;Laerm;67371;52.624;13.544;2023-02-13T08:27:39;66.90;45.37;79.98;;
37161;Laerm;67371;52.624;13.544;2023-02-13T08:30:04;68.88;49.37;77.81;;
37161;Laerm;67371;52.624;13.544;2023-02-13T08:32:30;66.77;45.66;79.20;;
37161;Laerm;67371;52.624;13.544;2023-02-13T08:34:55;68.88;48.27;78.48;;
37161;Laerm;67371;52.624;13.544;2023-02-13T08:37:20;68.43;49.32;80.15;;
37161;Laerm;67371;52.624;13.544;2023-02-13T08:39:46;68.89;44.91;79.12;;
37161;Laerm;67371;52.624;13.544;2023-02-13T08:42:11;69.07;47.18;84.47;;
37161;Laerm;67371;52.624;13.544;2023-02-13T08:44:36;67.76;44.71;78.43;;
37161;Laerm;67371;52.624;13.544;2023-02-13T08:47:04;66.72;45.54;75.25;;
37161;Laerm;67371;52.624;13.544;2023-02-13T08:49:30;67.67;47.06;80.98;;
37161;Laerm;67371;52.624;13.544;2023-02-13T08:51:56;63.61;45.07;73.67;;
37161;Laerm;67371;52.624;13.544;2023-02-13T08:54:21;68.11;47.18;76.38;;
37161;Laerm;67371;52.624;13.544;2023-02-13T08:56:46;67.38;48.87;76.26;;
37161;Laerm;67371;52.624;13.544;2023-02-13T08:59:11;67.04;46.74;78.35;;
37161;Laerm;67371;52.624;13.544;2023-02-13T09:01:36;68.49;47.42;82.01;;
37161;Laerm;67371;52.624;13.544;2023-02-13T09:04:02;68.72;45.21;79.73;;
37161;Laerm;67371;52.624;13.544;2023-02-13T09:06:27;67.75;44.56;79.95;;
37161;Laerm;67371;52.624;13.544;2023-02-13T09:08:52;68.05;48.42;77.78;;
37161;Laerm;67371;52.624;13.544;2023-02-13T09:11:18;67.02;44.56;75.84;;
37161;Laerm;67371;52.624;13.544;2023-02-13T09:13:44;67.27;45.33;77.94;;
37161;Laerm;67371;52.624;13.544;2023-02-13T09:16:09;68.04;48.58;80.61;;
37161;Laerm;67371;52.624;13.544;2023-02-13T09:18:35;68.76;49.92;78.54;;
37161;Laerm;67371;52.624;13.544;2023-02-13T09:21:01;67.74;44.43;81.09;;
37161;Laerm;67371;52.624;13.544;2023-02-13T09:23:29;64.75;44.48;75.95;;
37161;Laerm;67371;52.624;13.544;2023-02-13T09:25:57;70.37;47.42;90.76;;
37161;Laerm;67371;52.624;13.544;2023-02-13T09:28:22;67.48;44.17;78.92;;
37161;Laerm;67371;52.624;13.544;2023-02-13T09:30:47;67.81;48.24;82.81;;
37161;Laerm;67371;52.624;13.544;2023-02-13T09:33:13;69.06;45.88;83.35;;
37161;Laerm;67371;52.624;13.544;2023-02-13T09:35:38;65.79;46.03;74.93;;
37161;Laerm;67371;52.624;13.544;2023-02-13T09:38:06;66.78;45.50;78.61;;
37161;Laerm;67371;52.624;13.544;2023-02-13T09:40:34;64.91;49.49;75.98;;
37161;Laerm;67371;52.624;13.544;2023-02-13T09:43:18;72.98;63.00;78.53;;
37161;Laerm;67371;52.624;13.544;2023-02-13T09:45:46;73.02;57.24;81.88;;
37161;Laerm;67371;52.624;13.544;2023-02-13T09:48:18;65.63;46.91;77.25;;
37161;Laerm;67371;52.624;13.544;2023-02-13T09:50:45;69.01;45.20;81.32;;
37161;Laerm;67371;52.624;13.544;2023-02-13T09:53:15;64.85;47.65;75.16;;
37161;Laerm;67371;52.624;13.544;2023-02-13T09:56:07;66.70;44.61;77.66;;
37161;Laerm;67371;52.624;13.544;2023-02-13T09:58:38;66.85;47.49;77.62;;
37161;Laerm;67371;52.624;13.544;2023-02-13T10:01:05;68.20;45.18;79.31;;
37161;Laerm;67371;52.624;13.544;2023-02-13T10:06:07;67.59;47.68;79.60;;
37161;Laerm;67371;52.624;13.544;2023-02-13T10:14:18;68.16;48.55;77.74;;
37161;Laerm;67371;52.624;13.544;2023-02-13T10:17:06;63.60;44.52;78.30;;
37161;Laerm;67371;52.624;13.544;2023-02-13T10:22:14;65.14;44.26;76.70;;
37161;Laerm;67371;52.624;13.544;2023-02-13T10:24:45;66.48;45.27;74.36;;
37161;Laerm;67371;52.624;13.544;2023-02-13T10:27:17;66.01;45.57;75.57;;
37161;Laerm;67371;52.624;13.544;2023-02-13T10:35:40;67.62;44.99;81.29;;
37161;Laerm;67371;52.624;13.544;2023-02-13T10:38:12;68.11;48.79;77.60;;
37161;Laerm;67371;52.624;13.544;2023-02-13T10:40:39;68.47;48.72;80.08;;
37161;Laerm;67371;52.624;13.544;2023-02-13T10:43:08;65.69;46.55;75.24;;
37161;Laerm;67371;52.624;13.544;2023-02-13T10:50:47;67.01;44.35;78.22;;
37161;Laerm;67371;52.624;13.544;2023-02-13T11:03:04;68.11;43.31;76.41;;
37161;Laerm;67371;52.624;13.544;2023-02-13T11:05:31;67.06;46.11;80.73;;
37161;Laerm;67371;52.624;13.544;2023-02-13T11:07:56;67.89;44.39;80.02;;
37161;Laerm;67371;52.624;13.544;2023-02-13T11:10:22;67.64;42.93;77.93;;
37161;Laerm;67371;52.624;13.544;2023-02-13T11:12:48;67.72;44.51;77.31;;
37161;Laerm;67371;52.624;13.544;2023-02-13T11:17:44;68.86;47.07;78.96;;
37161;Laerm;67371;52.624;13.544;2023-02-13T11:20:31;68.95;44.06;78.69;;
37161;Laerm;67371;52.624;13.544;2023-02-13T11:23:12;67.15;43.29;78.90;;
37161;Laerm;67371;52.624;13.544;2023-02-13T11:25:39;69.65;48.15;81.76;;
37161;Laerm;67371;52.624;13.544;2023-02-13T11:28:14;68.19;45.64;78.86;;
37161;Laerm;67371;52.624;13.544;2023-02-13T11:30:41;67.50;44.72;79.42;;
37161;Laerm;67371;52.624;13.544;2023-02-13T11:35:41;67.53;44.41;77.92;;
37161;Laerm;67371;52.624;13.544;2023-02-13T11:41:30;67.98;47.70;76.46;;
37161;Laerm;67371;52.624;13.544;2023-02-13T11:43:32;67.65;43.21;77.23;;
37161;Laerm;67371;52.624;13.544;2023-02-13T11:48:29;67.96;45.38;79.23;;
37161;Laerm;67371;52.624;13.544;2023-02-13T11:50:54;68.58;49.21;78.42;;
37161;Laerm;67371;52.624;13.544;2023-02-13T11:53:23;67.00;44.97;76.15;;
37161;Laerm;67371;52.624;13.544;2023-02-13T11:58:33;67.47;46.08;78.48;;
37161;Laerm;67371;52.624;13.544;2023-02-13T12:03:42;69.83;45.86;82.61;;
37161;Laerm;67371;52.624;13.544;2023-02-13T12:08:36;67.28;43.10;76.34;;
37161;Laerm;67371;52.624;13.544;2023-02-13T12:11:03;67.31;46.56;77.63;;
37161;Laerm;67371;52.624;13.544;2023-02-13T12:13:35;68.65;49.26;78.92;;
37161;Laerm;67371;52.624;13.544;2023-02-13T12:16:04;68.49;50.89;81.00;;
37161;Laerm;67371;52.624;13.544;2023-02-13T12:18:36;67.70;51.28;75.99;;
37161;Laerm;67371;52.624;13.544;2023-02-13T12:33:46;68.42;47.81;78.21;;
37161;Laerm;67371;52.624;13.544;2023-02-13T12:41:37;69.86;45.14;78.26;;
37161;Laerm;67371;52.624;13.544;2023-02-13T12:46:57;66.96;44.90;77.53;;
37161;Laerm;67371;52.624;13.544;2023-02-13T12:54:45;68.38;44.36;77.88;;
37161;Laerm;67371;52.624;13.544;2023-02-13T12:57:22;68.09;42.96;78.66;;
37161;Laerm;67371;52.624;13.544;2023-02-13T12:59:59;68.26;44.51;76.49;;
37161;Laerm;67371;52.624;13.544;2023-02-13T13:02:36;67.91;41.74;82.54;;
37161;Laerm;67371;52.624;13.544;2023-02-13T13:08:10;67.66;47.21;75.74;;
37161;Laerm;67371;52.624;13.544;2023-02-13T13:10:42;66.39;43.94;75.26;;
37161;Laerm;67371;52.624;13.544;2023-02-13T13:13:24;68.74;44.80;78.94;;
37161;Laerm;67371;52.624;13.544;2023-02-13T13:15:59;69.99;45.54;79.61;;
37161;Laerm;67371;52.624;13.544;2023-02-13T13:20:58;68.87;44.62;77.00;;
37161;Laerm;67371;52.624;13.544;2023-02-13T13:26:13;69.22;49.21;77.79;;
37161;Laerm;67371;52.624;13.544;2023-02-13T13:28:40;68.34;47.42;77.20;;
37161;Laerm;67371;52.624;13.544;2023-02-13T13:31:06;68.17;49.29;80.16;;
37161;Laerm;67371;52.624;13.544;2023-02-13T13:33:32;68.24;47.11;77.58;;
37161;Laerm;67371;52.624;13.544;2023-02-13T13:36:13;68.30;42.68;78.52;;
37161;Laerm;67371;52.624;13.544;2023-02-13T13:43:58;69.49;46.38;77.43;;
37161;Laerm;67371;52.624;13.544;2023-02-13T13:51:19;67.80;43.32;77.63;;
37161;Laerm;67371;52.624;13.544;2023-02-13T13:54:21;68.43;45.46;77.34;;
37161;Laerm;67371;52.624;13.544;2023-02-13T13:59:18;69.24;43.92;81.19;;
37161;Laerm;67371;52.624;13.544;2023-02-13T14:01:43;69.54;43.70;77.50;;
37161;Laerm;67371;52.624;13.544;2023-02-13T14:04:59;65.99;41.61;77.80;;
37161;Laerm;67371;52.624;13.544;2023-02-13T14:09:39;68.62;46.24;80.28;;
37161;Laerm;67371;52.624;13.544;2023-02-13T14:14:48;67.84;45.97;77.72;;
37161;Laerm;67371;52.624;13.544;2023-02-13T14:17:14;69.25;47.17;77.29;;
37161;Laerm;67371;52.624;13.544;2023-02-13T14:19:42;68.73;48.67;78.80;;
37161;Laerm;67371;52.624;13.544;2023-02-13T14:22:26;68.86;51.15;79.03;;
37161;Laerm;67371;52.624;13.544;2023-02-13T14:24:56;68.98;42.98;79.43;;
37161;Laerm;67371;52.624;13.544;2023-02-13T14:27:22;68.62;42.33;76.23;;
37161;Laerm;67371;52.624;13.544;2023-02-13T14:29:48;69.86;53.45;77.98;;
37161;Laerm;67371;52.624;13.544;2023-02-13T14:32:32;67.95;41.63;75.14;;
37161;Laerm;67371;52.624;13.544;2023-02-13T14:35:00;65.83;40.74;74.20;;
37161;Laerm;67371;52.624;13.544;2023-02-13T14:37:36;69.33;46.68;80.14;;
37161;Laerm;67371;52.624;13.544;2023-02-13T14:42:50;68.58;48.28;76.42;;
37161;Laerm;67371;52.624;13.544;2023-02-13T14:45:18;68.33;44.43;79.45;;
37161;Laerm;67371;52.624;13.544;2023-02-13T14:47:46;68.74;54.16;77.41;;
37161;Laerm;67371;52.624;13.544;2023-02-13T14:50:27;67.75;45.50;76.52;;
37161;Laerm;67371;52.624;13.544;2023-02-13T14:52:53;68.77;49.15;75.54;;
37161;Laerm;67371;52.624;13.544;2023-02-13T14:55:37;69.07;52.41;80.76;;
37161;Laerm;67371;52.624;13.544;2023-02-13T14:58:08;69.37;46.14;78.00;;
37161;Laerm;67371;52.624;13.544;2023-02-13T15:00:38;68.35;42.97;77.58;;
37161;Laerm;67371;52.624;13.544;2023-02-13T15:05:50;68.22;48.25;77.28;;
37161;Laerm;67371;52.624;13.544;2023-02-13T15:08:20;68.64;49.70;78.93;;
37161;Laerm;67371;52.624;13.544;2023-02-13T15:10:51;68.98;51.72;77.40;;
37161;Laerm;67371;52.624;13.544;2023-02-13T15:13:31;67.68;48.29;73.82;;
37161;Laerm;67371;52.624;13.544;2023-02-13T15:18:26;69.71;50.26;80.21;;
37161;Laerm;67371;52.624;13.544;2023-02-13T15:20:53;69.49;46.23;76.83;;
37161;Laerm;67371;52.624;13.544;2023-02-13T15:23:24;68.60;49.08;77.61;;
37161;Laerm;67371;52.624;13.544;2023-02-13T15:26:03;68.56;52.10;81.83;;
37161;Laerm;67371;52.624;13.544;2023-02-13T15:28:29;68.56;48.62;78.61;;
37161;Laerm;67371;52.624;13.544;2023-02-13T15:31:19;68.50;46.45;79.55;;
37161;Laerm;67371;52.624;13.544;2023-02-13T15:33:46;69.35;51.68;77.54;;
37161;Laerm;67371;52.624;13.544;2023-02-13T15:36:21;68.49;49.58;75.82;;
37161;Laerm;67371;52.624;13.544;2023-02-13T15:38:55;68.42;48.44;76.45;;
37161;Laerm;67371;52.624;13.544;2023-02-13T15:41:22;67.82;45.06;78.87;;
37161;Laerm;67371;52.624;13.544;2023-02-13T15:43:55;67.78;47.19;75.00;;
37161;Laerm;67371;52.624;13.544;2023-02-13T15:46:28;68.10;44.39;77.45;;
37161;Laerm;67371;52.624;13.544;2023-02-13T15:48:58;65.51;43.36;75.25;;
37161;Laerm;67371;52.624;13.544;2023-02-13T15:51:28;68.67;50.30;76.96;;
37161;Laerm;67371;52.624;13.544;2023-02-13T15:53:58;68.99;48.64;77.03;;
37161;Laerm;67371;52.624;13.544;2023-02-13T15:56:24;67.80;45.71;74.98;;
37161;Laerm;67371;52.624;13.544;2023-02-13T15:58:50;67.07;44.37;76.56;;
37161;Laerm;67371;52.624;13.544;2023-02-13T16:01:16;79.16;45.37;102.46;;
37161;Laerm;67371;52.624;13.544;2023-02-13T16:03:41;84.89;47.69;107.04;;
37161;Laerm;67371;52.624;13.544;2023-02-13T16:06:10;69.30;46.77;80.53;;
37161;Laerm;67371;52.624;13.544;2023-02-13T16:08:37;68.24;46.43;75.93;;
37161;Laerm;67371;52.624;13.544;2023-02-13T16:11:16;67.15;46.44;75.16;;
37161;Laerm;67371;52.624;13.544;2023-02-13T16:16:19;66.78;43.75;76.50;;
37161;Laerm;67371;52.624;13.544;2023-02-13T16:18:44;67.84;44.81;82.08;;